< < Back
Terminal Aerodrome Forecast


Current Version              Previous Versions:   1  2  3  4  5  6  7  8  9  

Terminal Aerodrome Forecast

133
FTUS42 KILM 261737
TAFFLO
TAF
KFLO 261737Z 2618/2718 03012KT P6SM OVC010
      TEMPO 2618/2620 BKN008
     FM270000 02007KT P6SM SCT007 OVC014
     FM270600 04006KT P6SM SCT015 BKN250
     FM271500 35007KT P6SM SKC=

Latest METAR

744
SAUS70 KWBC 270856
MTRFLO
METAR KFLO 270853Z AUTO 01005KT 10SM OVC075 11/09 A2976 RMK AO2 SLP076
T01110094 55007


USA.gov is the U.S. government's official web portal to all federal, state and local government web resources and services.